Sinsinawa, WI

1:01 PM CDT on October 31, 2014 (GMT -0500)
Public Works | Change Station
CLOSE
Current Station
Personal Weather Station
Location: Dubuque, IA
Elevation: 604 ft
Nearby Weather Stations

Elev 604 ft 42.51 °N, 90.66 °W | Updated 4 minutes ago

Partly Cloudy
Partly Cloudy
40.3 °F
Feels Like 35 °F
N
8.0
Wind Variable Wind from NW
Gusts 27.0 mph

Today
High -- | Low -- °F
--% Chance of Precip.
Yesterday
High -- | Low -- °F
Precip. -- in
7:34 AM 5:56 PM
First Quarter, 57% visible
Pressure 30.38 in
Visibility 10.0 miles
Clouds Scattered Clouds 4300 ft
Windchill 35 °F
Dew Point 22 °F
Humidity 48%
Rainfall 0.00 in
Snow Depth Not available.
UV 3 out of 12
Pollen .10 out of 12
Air Quality Not available.
Flu Activity Not available.
METAR KDBQ 311753Z 36017G29KT 10SM SCT043 03/M06 A3035 RMK AO2 PK WND 36031/1724 SLP286 T00331061 10044 21011 50008

More Conditions Fewer Conditions

Pressure 30.38 in
Visibility 10.0 miles
Clouds Scattered Clouds 4300 ft
Windchill 35 °F
Dew Point 22 °F
Humidity 48%
Rainfall 0.00 in
Snow Depth Not available.
UV 3 out of 12
Pollen .10 out of 12
Air Quality Not available.
Flu Activity Not available.
METAR KDBQ 311753Z 36017G29KT 10SM SCT043 03/M06 A3035 RMK AO2 PK WND 36031/1724 SLP286 T00331061 10044 21011 50008

More Conditions Fewer Conditions

10-Day Weather Forecast

Almanac

Astronomy

Oct. 31, 2014 Rise Set
Actual Time
Civil Twilight
Nautical Twilight
Astronomical Twilight
Moon
Length of Visible Light
Length of Day
Tomorrow will be .
, % of the Moon is Illuminated

Today's Extremes

State Highs State Lows

Community

WunderPhotos

Upload Photos

1,766,679 photos uploaded!

WunderBlogs® & News

Nearby

Air Quality

  Air Quality AQ Index Pollutant
Not available.

Snow Depth

Station Depth Elevation

Earthquake Activity

City Distance Mag. Time & Date
Minimum magnitude displayed is 2.5.

Coastal Water Temperatures

Place Temperature

Nearby Weather Stations